createdAt,value
2017-12-31T00:02:27.268Z,59.33
2017-12-31T00:04:54.879Z,61.17
2017-12-31T00:07:22.422Z,59.05
2017-12-31T00:09:50.093Z,59.37
2017-12-31T00:12:17.648Z,58.82
2017-12-31T00:14:45.234Z,58.52
2017-12-31T00:19:50.391Z,60.84
2017-12-31T00:22:18.406Z,62.52
2017-12-31T00:24:45.978Z,61.72
2017-12-31T00:27:13.772Z,60.50
2017-12-31T00:29:42.077Z,60.91
2017-12-31T00:32:09.653Z,62.32
2017-12-31T00:34:37.315Z,62.85
2017-12-31T00:37:04.920Z,62.85
2017-12-31T00:39:32.532Z,61.92
2017-12-31T00:42:00.151Z,61.34
2017-12-31T00:44:28.292Z,59.52
2017-12-31T00:46:55.863Z,59.17
2017-12-31T00:49:23.469Z,58.93
2017-12-31T00:51:51.239Z,60.64
2017-12-31T00:54:18.852Z,61.66
2017-12-31T00:56:46.657Z,62.16
2017-12-31T00:59:14.540Z,61.22
2017-12-31T01:01:42.384Z,64.28
2017-12-31T01:04:10.010Z,62.59
2017-12-31T01:06:38.279Z,61.81
2017-12-31T01:09:06.513Z,63.69
2017-12-31T01:11:34.311Z,62.51
2017-12-31T01:14:01.941Z,64.06
2017-12-31T01:16:30.250Z,62.27
2017-12-31T01:18:58.042Z,63.83
2017-12-31T01:21:26.568Z,63.79
2017-12-31T01:23:54.766Z,63.72
2017-12-31T01:26:33.328Z,63.38
2017-12-31T01:29:02.926Z,63.36
2017-12-31T01:31:30.562Z,62.50
2017-12-31T01:33:58.149Z,62.33
2017-12-31T01:36:26.131Z,63.41
2017-12-31T01:38:54.579Z,62.95
2017-12-31T01:41:22.327Z,62.11
2017-12-31T01:43:49.864Z,61.99
2017-12-31T01:46:17.734Z,61.87
2017-12-31T01:48:57.017Z,64.04
2017-12-31T01:51:24.857Z,64.92
2017-12-31T01:53:52.622Z,64.63
2017-12-31T01:56:20.191Z,64.09
2017-12-31T01:58:47.793Z,63.85
2017-12-31T02:01:15.380Z,62.87
2017-12-31T02:03:42.963Z,62.13
2017-12-31T02:06:10.548Z,62.27
2017-12-31T02:08:38.138Z,61.39
2017-12-31T02:11:05.692Z,62.92
2017-12-31T02:13:33.249Z,64.12
2017-12-31T02:16:00.831Z,63.02
2017-12-31T02:18:28.424Z,63.13
2017-12-31T02:20:55.986Z,63.17
2017-12-31T02:23:23.593Z,61.65
2017-12-31T02:25:51.312Z,62.65
2017-12-31T02:28:18.935Z,62.80
2017-12-31T02:30:46.554Z,61.40
2017-12-31T02:33:14.376Z,64.00
2017-12-31T02:35:42.751Z,64.73
2017-12-31T02:38:11.147Z,65.19
2017-12-31T02:40:38.950Z,64.89
2017-12-31T02:43:06.842Z,64.22
2017-12-31T02:48:01.353Z,64.97
2017-12-31T02:50:28.917Z,65.65
2017-12-31T02:52:57.213Z,65.05
2017-12-31T02:55:24.780Z,65.67
2017-12-31T02:57:52.551Z,64.98
2017-12-31T03:00:21.891Z,62.30
2017-12-31T03:02:49.725Z,63.98
2017-12-31T03:05:17.474Z,63.06
2017-12-31T03:07:45.292Z,63.28
2017-12-31T03:10:13.045Z,62.40
2017-12-31T03:12:41.016Z,61.99
2017-12-31T03:15:08.656Z,62.76
2017-12-31T03:17:36.262Z,63.52
2017-12-31T03:20:04.560Z,64.35
2017-12-31T03:22:33.156Z,63.89
2017-12-31T03:25:01.462Z,63.73
2017-12-31T03:27:29.062Z,63.23
2017-12-31T03:29:56.653Z,65.14
2017-12-31T03:32:24.221Z,64.98
2017-12-31T03:34:52.014Z,64.08
2017-12-31T03:37:19.826Z,62.88
2017-12-31T03:39:47.459Z,66.00
2017-12-31T03:42:15.369Z,65.80
2017-12-31T03:44:42.920Z,64.84
2017-12-31T03:47:10.523Z,65.84
2017-12-31T03:49:38.354Z,65.71
2017-12-31T03:52:05.963Z,66.14
2017-12-31T03:54:34.860Z,67.52
2017-12-31T03:57:02.627Z,67.95
2017-12-31T03:59:30.519Z,68.36
2017-12-31T04:01:58.107Z,67.80
2017-12-31T04:04:25.657Z,67.45
2017-12-31T04:06:53.216Z,67.17
2017-12-31T04:09:21.689Z,65.88
2017-12-31T04:11:49.217Z,64.35
2017-12-31T04:14:17.689Z,65.84
2017-12-31T04:16:45.351Z,66.50
2017-12-31T04:19:13.746Z,65.34
2017-12-31T04:21:41.533Z,66.26
2017-12-31T04:24:10.089Z,65.49
2017-12-31T04:26:37.791Z,65.18
2017-12-31T04:29:05.381Z,66.18
2017-12-31T04:31:32.968Z,65.79
2017-12-31T04:34:00.611Z,65.54
2017-12-31T04:36:30.263Z,65.20
2017-12-31T04:38:58.551Z,65.92
2017-12-31T04:41:26.165Z,66.89
2017-12-31T04:43:53.913Z,66.05
2017-12-31T04:46:21.733Z,66.35
2017-12-31T04:48:49.317Z,65.95
2017-12-31T04:51:16.953Z,64.94
2017-12-31T04:53:45.510Z,65.94
2017-12-31T04:56:13.293Z,66.66
2017-12-31T04:58:41.441Z,66.58
2017-12-31T05:01:09.287Z,67.02
2017-12-31T05:03:36.915Z,67.00
2017-12-31T05:06:04.497Z,67.75
2017-12-31T05:08:32.955Z,65.92
2017-12-31T05:11:00.978Z,63.79
2017-12-31T05:13:28.604Z,65.90
2017-12-31T05:15:57.042Z,63.79
2017-12-31T05:18:24.699Z,65.02
2017-12-31T05:20:53.497Z,66.16
2017-12-31T05:23:21.159Z,65.83
2017-12-31T05:25:48.726Z,63.80
2017-12-31T05:28:17.094Z,63.63
2017-12-31T05:30:44.691Z,65.75
2017-12-31T05:33:12.255Z,66.59
2017-12-31T05:35:40.728Z,66.86
2017-12-31T05:38:08.443Z,64.92
2017-12-31T05:40:37.296Z,64.82
2017-12-31T05:43:05.020Z,65.98
2017-12-31T05:45:32.983Z,66.92
2017-12-31T05:48:00.885Z,65.54
2017-12-31T05:50:29.655Z,63.11
2017-12-31T05:52:57.529Z,64.12
2017-12-31T05:55:25.306Z,63.84
2017-12-31T05:57:52.950Z,63.25
2017-12-31T06:00:30.676Z,63.11
2017-12-31T06:03:04.534Z,63.54
2017-12-31T06:05:32.560Z,64.73
2017-12-31T06:08:00.158Z,65.71
2017-12-31T06:10:27.790Z,64.76
2017-12-31T06:12:55.666Z,63.89
2017-12-31T06:15:23.309Z,62.45
2017-12-31T06:17:50.863Z,61.88
2017-12-31T06:20:18.499Z,60.27
2017-12-31T06:22:46.158Z,59.28
2017-12-31T06:25:13.985Z,57.54
2017-12-31T06:27:41.976Z,56.69
2017-12-31T06:30:09.881Z,55.30
2017-12-31T06:32:37.489Z,54.52
2017-12-31T06:35:05.485Z,53.78
2017-12-31T06:37:33.394Z,55.10
2017-12-31T06:40:00.990Z,54.50
2017-12-31T06:42:28.553Z,54.43
2017-12-31T06:44:56.129Z,55.36
2017-12-31T06:47:23.937Z,56.86
2017-12-31T06:49:51.532Z,57.47
2017-12-31T06:52:19.250Z,56.37
2017-12-31T06:54:47.034Z,56.63
2017-12-31T06:57:14.582Z,56.17
2017-12-31T06:59:47.708Z,55.90
2017-12-31T07:02:16.244Z,53.39
2017-12-31T07:04:44.493Z,53.40
2017-12-31T07:07:12.114Z,55.11
2017-12-31T07:09:39.895Z,55.41
2017-12-31T07:12:07.460Z,55.71
2017-12-31T07:14:35.064Z,53.69
2017-12-31T07:17:02.663Z,54.09
2017-12-31T07:19:31.028Z,53.93
2017-12-31T07:21:58.822Z,52.86
2017-12-31T07:24:26.450Z,54.74
2017-12-31T07:26:54.082Z,56.93
2017-12-31T07:29:21.697Z,54.73
2017-12-31T07:31:49.387Z,53.57
2017-12-31T07:34:17.196Z,54.29
2017-12-31T07:36:44.995Z,51.89
2017-12-31T07:39:12.816Z,51.10
2017-12-31T07:41:40.361Z,49.34
2017-12-31T07:44:08.134Z,51.57
2017-12-31T07:46:35.777Z,52.78
2017-12-31T07:49:03.542Z,51.81
2017-12-31T07:51:31.382Z,47.70
2017-12-31T07:53:58.931Z,45.24
2017-12-31T07:56:26.529Z,46.46
2017-12-31T07:58:54.472Z,50.52
2017-12-31T08:01:22.090Z,48.57
2017-12-31T08:03:49.750Z,49.28
2017-12-31T08:06:17.666Z,49.78
2017-12-31T08:08:45.240Z,49.23
2017-12-31T08:11:14.096Z,50.04
2017-12-31T08:13:41.967Z,49.09
2017-12-31T08:16:09.661Z,47.51
2017-12-31T08:18:37.456Z,45.25
2017-12-31T08:21:05.555Z,44.73
2017-12-31T08:23:34.410Z,44.50
2017-12-31T08:26:02.120Z,43.48
2017-12-31T08:28:30.177Z,41.46
2017-12-31T08:30:57.877Z,40.10
2017-12-31T08:33:25.572Z,38.68
2017-12-31T08:35:53.892Z,38.60
2017-12-31T08:38:22.669Z,39.08
2017-12-31T08:40:50.642Z,37.59
2017-12-31T08:43:18.385Z,39.14
2017-12-31T08:45:46.178Z,46.33
2017-12-31T08:48:14.877Z,38.71
2017-12-31T08:50:44.855Z,38.36
2017-12-31T08:53:16.152Z,38.76
2017-12-31T08:55:46.505Z,37.27
2017-12-31T08:58:14.772Z,36.26
2017-12-31T09:00:45.157Z,36.06
2017-12-31T09:03:13.578Z,36.49
2017-12-31T09:05:41.593Z,35.67
2017-12-31T09:08:09.225Z,37.78
2017-12-31T09:10:36.757Z,39.47
2017-12-31T09:13:05.447Z,40.47
2017-12-31T09:15:33.808Z,36.96
2017-12-31T09:18:01.619Z,37.51
2017-12-31T09:20:30.967Z,37.96
2017-12-31T09:22:58.551Z,36.88
2017-12-31T09:25:26.531Z,41.40
2017-12-31T09:27:54.150Z,41.19
2017-12-31T09:30:21.827Z,39.39
2017-12-31T09:32:49.654Z,39.37
2017-12-31T09:35:17.259Z,37.40
2017-12-31T09:37:45.239Z,38.78
2017-12-31T09:40:12.898Z,42.53
2017-12-31T09:42:40.533Z,43.19
2017-12-31T09:45:08.750Z,44.28
2017-12-31T09:47:36.344Z,42.66
2017-12-31T09:50:03.914Z,43.59
2017-12-31T09:52:31.516Z,41.80
2017-12-31T09:54:59.085Z,44.14
2017-12-31T09:57:26.620Z,46.89
2017-12-31T09:59:54.182Z,46.55
2017-12-31T10:02:21.763Z,45.76
2017-12-31T10:04:49.277Z,47.55
2017-12-31T10:07:16.802Z,45.98
2017-12-31T10:09:44.389Z,45.32
2017-12-31T10:12:11.943Z,49.41
2017-12-31T10:14:39.499Z,45.69
2017-12-31T10:17:07.065Z,48.24
2017-12-31T10:19:34.614Z,46.30
2017-12-31T10:22:02.160Z,44.51
2017-12-31T10:24:29.945Z,46.52
2017-12-31T10:26:57.498Z,45.69
2017-12-31T10:29:25.050Z,46.38
2017-12-31T10:31:52.661Z,46.90
2017-12-31T10:34:20.200Z,46.24
2017-12-31T10:36:47.793Z,45.90
2017-12-31T10:39:15.499Z,46.13
2017-12-31T10:41:43.018Z,46.17
2017-12-31T10:44:10.590Z,47.17
2017-12-31T10:46:38.197Z,47.90
2017-12-31T10:49:05.972Z,47.70
2017-12-31T10:51:33.663Z,48.12
2017-12-31T10:54:01.237Z,47.08
2017-12-31T10:56:29.017Z,47.73
2017-12-31T10:58:56.574Z,48.35
2017-12-31T11:01:24.247Z,48.54
2017-12-31T11:03:52.032Z,48.84
2017-12-31T11:06:19.587Z,49.33
2017-12-31T11:08:48.156Z,47.13
2017-12-31T11:11:15.935Z,47.59
2017-12-31T11:13:43.475Z,48.14
2017-12-31T11:16:12.002Z,47.71
2017-12-31T11:18:39.605Z,46.85
2017-12-31T11:21:20.029Z,45.01
2017-12-31T11:24:14.376Z,44.73
2017-12-31T11:26:42.331Z,45.96
2017-12-31T11:31:58.019Z,47.46
2017-12-31T11:34:26.130Z,48.09
2017-12-31T11:36:54.295Z,48.04
2017-12-31T11:39:22.178Z,47.56
2017-12-31T11:41:50.033Z,47.19
2017-12-31T11:44:17.815Z,64.93
2017-12-31T11:46:45.820Z,49.88
2017-12-31T11:49:14.626Z,49.75
2017-12-31T11:51:42.326Z,50.15
2017-12-31T11:54:09.990Z,48.17
2017-12-31T11:56:37.630Z,46.95
2017-12-31T11:59:05.186Z,48.71
2017-12-31T12:01:32.827Z,46.28
2017-12-31T12:04:00.439Z,46.12
2017-12-31T12:06:28.350Z,46.61
2017-12-31T12:08:56.194Z,46.14
2017-12-31T12:11:23.876Z,45.65
2017-12-31T12:13:52.532Z,45.82
2017-12-31T12:16:20.350Z,45.88
2017-12-31T12:18:51.257Z,44.17
2017-12-31T12:21:18.839Z,45.22
2017-12-31T12:23:46.441Z,47.18
2017-12-31T12:26:15.036Z,45.47
2017-12-31T12:28:42.587Z,45.14
2017-12-31T12:31:10.181Z,41.13
2017-12-31T12:33:47.833Z,43.00
2017-12-31T12:36:15.482Z,43.88
2017-12-31T12:38:43.110Z,42.81
2017-12-31T12:41:11.466Z,43.63
2017-12-31T12:43:40.270Z,43.74
2017-12-31T12:46:08.081Z,42.08
2017-12-31T12:48:38.222Z,43.85
2017-12-31T12:51:06.063Z,45.75
2017-12-31T12:53:33.614Z,42.69
2017-12-31T12:56:01.250Z,40.25
2017-12-31T12:58:28.981Z,42.09
2017-12-31T13:00:56.862Z,42.38
2017-12-31T13:03:25.412Z,41.53
2017-12-31T13:05:53.683Z,40.08
2017-12-31T13:09:06.719Z,43.96
2017-12-31T13:11:35.963Z,43.53
2017-12-31T13:14:04.657Z,44.97
2017-12-31T13:16:32.329Z,43.66
2017-12-31T13:19:01.096Z,42.29
2017-12-31T13:21:28.935Z,40.77
2017-12-31T13:23:58.670Z,43.39
2017-12-31T13:26:26.525Z,42.77
2017-12-31T13:28:55.550Z,43.53
2017-12-31T13:31:25.195Z,42.91
2017-12-31T13:33:53.014Z,42.25
2017-12-31T13:36:20.846Z,43.44
2017-12-31T13:38:50.997Z,42.72
2017-12-31T13:41:19.184Z,44.85
2017-12-31T13:43:49.005Z,43.62
2017-12-31T13:46:19.129Z,46.39
2017-12-31T13:48:46.934Z,43.38
2017-12-31T13:51:14.667Z,42.62
2017-12-31T13:53:43.181Z,44.16
2017-12-31T13:56:11.725Z,44.90
2017-12-31T13:58:39.886Z,43.57
2017-12-31T14:01:08.116Z,46.55
2017-12-31T14:03:38.154Z,45.60
2017-12-31T14:06:07.990Z,45.27
2017-12-31T14:08:36.375Z,46.49
2017-12-31T14:11:04.141Z,48.15
2017-12-31T14:13:31.965Z,47.33
2017-12-31T14:16:27.608Z,47.81
2017-12-31T14:19:01.409Z,44.37
2017-12-31T14:21:29.148Z,45.76
2017-12-31T14:23:57.032Z,47.75
2017-12-31T14:26:24.637Z,44.13
2017-12-31T14:28:54.053Z,44.94
2017-12-31T14:31:22.544Z,45.13
2017-12-31T14:33:51.272Z,47.91
2017-12-31T14:36:20.729Z,46.32
2017-12-31T14:42:11.643Z,49.60
2017-12-31T14:44:40.664Z,48.39
2017-12-31T14:47:11.611Z,48.31
2017-12-31T14:49:40.892Z,50.28
2017-12-31T14:52:09.568Z,50.75
2017-12-31T14:54:40.162Z,51.13
2017-12-31T14:57:24.261Z,50.46
2017-12-31T14:59:58.054Z,50.60
2017-12-31T15:02:25.917Z,51.33
2017-12-31T15:04:57.902Z,51.42
2017-12-31T15:07:26.246Z,52.62
2017-12-31T15:09:54.424Z,51.90
2017-12-31T15:12:23.047Z,59.20
2017-12-31T15:14:50.843Z,55.58
2017-12-31T15:17:22.202Z,53.69
2017-12-31T15:19:50.010Z,50.98
2017-12-31T15:22:17.866Z,52.46
2017-12-31T15:24:45.508Z,52.68
2017-12-31T15:27:13.567Z,52.64
2017-12-31T15:29:41.644Z,53.31
2017-12-31T15:34:51.369Z,53.69
2017-12-31T15:37:21.365Z,54.07
2017-12-31T15:39:49.953Z,54.49
2017-12-31T15:42:17.718Z,55.97
2017-12-31T15:44:47.228Z,56.37
2017-12-31T15:47:38.879Z,57.76
2017-12-31T15:50:06.973Z,56.07
2017-12-31T15:52:34.634Z,52.14
2017-12-31T15:55:02.252Z,55.07
2017-12-31T15:57:29.969Z,55.00
2017-12-31T15:59:57.840Z,52.72
2017-12-31T16:02:26.669Z,51.41
2017-12-31T16:04:54.410Z,52.66
2017-12-31T16:07:23.160Z,53.59
2017-12-31T16:10:03.808Z,52.78
2017-12-31T16:12:39.076Z,51.23
2017-12-31T16:15:08.784Z,50.59
2017-12-31T16:17:42.247Z,52.29
2017-12-31T16:20:10.341Z,52.54
2017-12-31T16:22:38.110Z,52.75
2017-12-31T16:25:16.428Z,53.70
2017-12-31T16:27:46.989Z,54.06
2017-12-31T16:30:14.872Z,53.04
2017-12-31T19:10:33.237Z,56.10
2017-12-31T19:13:01.027Z,54.69
2017-12-31T19:15:28.696Z,54.39
2017-12-31T19:17:56.423Z,55.42
2017-12-31T19:23:37.469Z,53.79
2017-12-31T19:26:05.318Z,53.79
2017-12-31T19:28:33.172Z,54.13
2017-12-31T19:31:01.244Z,54.26
2017-12-31T19:33:29.347Z,54.70
2017-12-31T19:35:57.508Z,53.61
2017-12-31T19:38:25.492Z,56.48
2017-12-31T19:40:56.603Z,62.06
2017-12-31T19:43:24.374Z,60.60
2017-12-31T19:45:53.716Z,57.31
2017-12-31T19:48:21.736Z,58.65
2017-12-31T19:50:50.212Z,58.16
2017-12-31T19:53:17.944Z,58.85
2017-12-31T19:55:45.698Z,57.11
2017-12-31T19:58:13.677Z,58.41
2017-12-31T20:00:41.798Z,56.64
2017-12-31T20:03:09.925Z,56.85
2017-12-31T20:05:38.084Z,55.64
2017-12-31T20:08:05.940Z,56.11
2017-12-31T20:10:34.019Z,55.97
2017-12-31T20:13:01.854Z,55.02
2017-12-31T20:15:30.086Z,56.04
2017-12-31T20:17:57.835Z,55.22
2017-12-31T20:20:26.055Z,55.96
2017-12-31T20:22:53.740Z,55.30
2017-12-31T20:25:21.696Z,54.50
2017-12-31T20:27:49.380Z,55.70
2017-12-31T20:30:17.184Z,57.12
2017-12-31T20:32:44.946Z,56.16
2017-12-31T20:35:12.959Z,56.69
2017-12-31T20:37:41.674Z,56.55
2017-12-31T20:40:21.615Z,57.13
2017-12-31T20:42:49.500Z,55.93
2017-12-31T20:45:17.478Z,56.88
2017-12-31T20:47:45.484Z,57.95
2017-12-31T20:50:13.383Z,59.17
2017-12-31T20:52:41.184Z,58.13
2017-12-31T20:55:08.918Z,56.76
2017-12-31T20:58:07.392Z,57.55
2017-12-31T21:00:35.099Z,58.12
2017-12-31T21:03:02.957Z,58.32
2017-12-31T21:05:30.685Z,57.41
2017-12-31T21:07:58.513Z,58.05
2017-12-31T21:10:26.344Z,61.15
2017-12-31T21:12:54.807Z,59.53
2017-12-31T21:15:22.549Z,59.48
2017-12-31T21:17:50.385Z,60.74
2017-12-31T21:20:18.114Z,61.28
2017-12-31T21:22:46.802Z,61.74
2017-12-31T21:25:14.493Z,61.91
2017-12-31T21:27:42.228Z,60.77
2017-12-31T21:30:10.179Z,61.81
2017-12-31T21:32:37.872Z,60.18
2017-12-31T21:35:05.541Z,62.11
2017-12-31T21:37:33.713Z,61.63
2017-12-31T21:40:01.386Z,61.53
2017-12-31T21:42:29.112Z,62.13
2017-12-31T21:44:56.862Z,60.90
2017-12-31T21:47:24.573Z,61.27
2017-12-31T21:49:52.424Z,60.31
2017-12-31T21:52:20.141Z,60.55
2017-12-31T21:54:47.832Z,61.42
2017-12-31T21:57:15.524Z,61.38
2017-12-31T21:59:43.386Z,60.70
2017-12-31T22:02:11.337Z,69.62
2017-12-31T22:04:38.948Z,64.16
2017-12-31T22:07:07.899Z,63.15
2017-12-31T22:09:35.815Z,61.94
2017-12-31T22:12:03.477Z,61.79
2017-12-31T22:14:31.447Z,63.12
2017-12-31T22:16:59.801Z,62.50
2017-12-31T22:19:27.509Z,62.82
2017-12-31T22:21:56.933Z,62.54
2017-12-31T22:24:25.441Z,63.39
2017-12-31T22:26:53.298Z,63.76
2017-12-31T22:36:18.094Z,63.83
2017-12-31T22:43:56.806Z,63.51
2017-12-31T22:46:27.966Z,63.11
2017-12-31T22:49:00.805Z,62.81
2017-12-31T22:51:28.736Z,62.53
2017-12-31T22:53:59.586Z,63.69
2017-12-31T22:56:29.358Z,64.41
2017-12-31T22:59:01.983Z,64.07
2017-12-31T23:04:59.235Z,63.70
2017-12-31T23:07:28.004Z,64.61
2017-12-31T23:09:56.683Z,64.89
2017-12-31T23:12:25.556Z,65.46
2017-12-31T23:14:53.964Z,64.78
2017-12-31T23:17:23.964Z,64.54
2017-12-31T23:19:51.846Z,66.98
2017-12-31T23:22:20.733Z,66.60
2017-12-31T23:25:10.620Z,65.12
2017-12-31T23:38:01.333Z,65.01
2017-12-31T23:40:30.888Z,64.67
2017-12-31T23:42:59.242Z,63.86
2017-12-31T23:45:44.509Z,63.01
2017-12-31T23:48:12.075Z,63.12
2017-12-31T23:50:43.983Z,61.93
2017-12-31T23:53:12.682Z,62.78
2017-12-31T23:55:41.806Z,63.12
2017-12-31T23:58:10.218Z,62.58
